Time;durP1;ratioP1;P1;durP2;ratioP2;P2;SDS_P1;SDS_P2;PMS_P1;PMS_P2;Temp;Humidity;BMP_temperature;BMP_pressure;BME280_temperature;BME280_humidity;BME280_pressure;Samples;Min_cycle;Max_cycle;Signal;HPM_P1;HPM_P2
2023/12/04 00:00:58;;;;;;;;;2.75;2.75;;;;;;;;4944483;28;45193;-76
2023/12/04 00:03:23;;;;;;;;;13.00;10.25;;;;;;;;4961232;28;45227;-76
2023/12/04 00:05:48;;;;;;;;;14.75;12.00;;;;;;;;4961726;28;45440;-76
2023/12/04 00:08:13;;;;;;;;;16.75;12.50;;;;;;;;4958458;28;45550;-76
2023/12/04 00:10:39;;;;;;;;;15.75;10.25;;;;;;;;4943338;28;45252;-76
2023/12/04 00:13:04;;;;;;;;;10.75;9.00;;;;;;;;4959748;28;45421;-76
2023/12/04 00:15:29;;;;;;;;;11.00;9.75;;;;;;;;4955048;28;45479;-76
2023/12/04 00:17:54;;;;;;;;;13.00;9.75;;;;;;;;4960118;28;46323;-76
2023/12/04 00:20:19;;;;;;;;;14.00;10.00;;;;;;;;4951780;28;44759;-76
2023/12/04 00:22:45;;;;;;;;;14.25;9.25;;;;;;;;4960577;28;45331;-76
2023/12/04 00:25:10;;;;;;;;;10.50;10.25;;;;;;;;4963845;28;45311;-76
2023/12/04 00:27:35;;;;;;;;;11.00;10.50;;;;;;;;4949326;28;47474;-76
2023/12/04 00:30:03;;;;;;;;;15.75;9.00;;;;;;;;4956040;28;45325;-76
2023/12/04 00:32:28;;;;;;;;;12.75;9.75;;;;;;;;4961530;28;45286;-76
2023/12/04 00:34:53;;;;;;;;;11.25;10.00;;;;;;;;4956050;28;45086;-76
2023/12/04 00:37:19;;;;;;;;;12.50;10.25;;;;;;;;4944259;28;46748;-76
2023/12/04 00:39:44;;;;;;;;;11.50;7.00;;;;;;;;4960126;28;44812;-76
2023/12/04 00:42:09;;;;;;;;;12.00;8.25;;;;;;;;4946324;28;45263;-76
2023/12/04 00:44:34;;;;;;;;;11.00;6.50;;;;;;;;4960511;28;45300;-76
2023/12/04 00:46:59;;;;;;;;;10.00;8.25;;;;;;;;4967195;28;45496;-76
2023/12/04 00:49:25;;;;;;;;;10.50;8.00;;;;;;;;4961390;28;45405;-77
2023/12/04 00:51:50;;;;;;;;;6.25;6.25;;;;;;;;4961607;28;45233;-76
2023/12/04 00:54:15;;;;;;;;;13.00;6.50;;;;;;;;4940066;28;45894;-76
2023/12/04 00:56:41;;;;;;;;;12.25;10.00;;;;;;;;4960636;28;45248;-77
2023/12/04 00:59:09;;;;;;;;;10.00;7.50;;;;;;;;4958766;28;45303;-76
2023/12/04 01:01:35;;;;;;;;;15.00;8.50;;;;;;;;4960344;28;45456;-77
2023/12/04 01:04:00;;;;;;;;;11.00;8.00;;;;;;;;4942300;28;46316;-76
2023/12/04 01:06:26;;;;;;;;;7.75;7.75;;;;;;;;4967926;28;46268;-77
2023/12/04 01:08:52;;;;;;;;;11.50;8.00;;;;;;;;4956537;28;45458;-76
2023/12/04 01:11:17;;;;;;;;;12.50;7.75;;;;;;;;4946518;28;45336;-76
2023/12/04 01:13:42;;;;;;;;;10.75;8.75;;;;;;;;4960122;28;45533;-76
2023/12/04 01:16:08;;;;;;;;;9.75;7.25;;;;;;;;4964898;28;45460;-76
2023/12/04 01:18:33;;;;;;;;;10.25;8.50;;;;;;;;4959699;28;45322;-77
2023/12/04 01:20:58;;;;;;;;;11.00;8.25;;;;;;;;4954635;28;45437;-76
2023/12/04 01:23:23;;;;;;;;;12.00;11.00;;;;;;;;4960472;28;45326;-76
2023/12/04 01:25:48;;;;;;;;;10.00;7.75;;;;;;;;4956909;28;46584;-76
2023/12/04 01:28:14;;;;;;;;;11.50;8.00;;;;;;;;4959175;28;45302;-76
2023/12/04 01:30:39;;;;;;;;;11.00;8.75;;;;;;;;4956418;28;45509;-76
2023/12/04 01:33:04;;;;;;;;;1.00;1.00;;;;;;;;4958441;28;45371;-76
2023/12/04 01:35:30;;;;;;;;;10.25;9.50;;;;;;;;4959213;28;46301;-77
2023/12/04 01:37:55;;;;;;;;;12.00;8.00;;;;;;;;4958617;28;45260;-76
2023/12/04 01:40:20;;;;;;;;;8.50;7.00;;;;;;;;4956929;28;45477;-76
2023/12/04 01:42:45;;;;;;;;;10.75;7.75;;;;;;;;4958666;28;45299;-76
2023/12/04 01:45:11;;;;;;;;;8.50;7.00;;;;;;;;4957413;28;45290;-76
2023/12/04 01:47:36;;;;;;;;;9.50;7.00;;;;;;;;4959956;28;45205;-76
2023/12/04 01:50:02;;;;;;;;;10.00;8.00;;;;;;;;4957796;28;45416;-76
2023/12/04 01:52:27;;;;;;;;;10.25;8.00;;;;;;;;4960207;28;45188;-76
2023/12/04 01:54:52;;;;;;;;;7.50;6.00;;;;;;;;4937169;28;47278;-76
2023/12/04 01:57:18;;;;;;;;;9.50;6.00;;;;;;;;4942386;28;45276;-77
2023/12/04 01:59:44;;;;;;;;;7.00;6.50;;;;;;;;4953867;28;45220;-76
2023/12/04 02:02:10;;;;;;;;;7.00;7.00;;;;;;;;4941234;28;46333;-76
2023/12/04 02:04:35;;;;;;;;;13.25;8.00;;;;;;;;4941821;28;46454;-76
2023/12/04 02:07:00;;;;;;;;;7.50;5.00;;;;;;;;4947072;28;45293;-76
2023/12/04 02:09:26;;;;;;;;;9.75;8.25;;;;;;;;4956127;28;45306;-76
2023/12/04 02:11:53;;;;;;;;;11.00;8.50;;;;;;;;4959723;28;45367;-76
2023/12/04 02:14:18;;;;;;;;;10.75;8.75;;;;;;;;4956440;28;45466;-76
2023/12/04 02:16:44;;;;;;;;;12.00;10.75;;;;;;;;4959846;28;45631;-76
2023/12/04 02:19:11;;;;;;;;;12.25;9.75;;;;;;;;4956231;28;45458;-76
2023/12/04 02:21:36;;;;;;;;;12.00;10.50;;;;;;;;4963456;28;45239;-76
2023/12/04 02:24:02;;;;;;;;;5.75;5.00;;;;;;;;4958108;28;45241;-76
2023/12/04 02:26:31;;;;;;;;;11.25;9.50;;;;;;;;4963277;28;44803;-76
2023/12/04 02:28:59;;;;;;;;;15.50;8.00;;;;;;;;4957027;28;45455;-76
2023/12/04 02:31:24;;;;;;;;;11.25;7.25;;;;;;;;4962963;28;45353;-76
2023/12/04 02:33:52;;;;;;;;;11.25;11.25;;;;;;;;4956990;28;45457;-77
2023/12/04 02:36:17;;;;;;;;;8.75;7.25;;;;;;;;4947759;28;45382;-77
2023/12/04 02:38:43;;;;;;;;;7.75;7.25;;;;;;;;4964240;28;45385;-76
2023/12/04 02:41:08;;;;;;;;;11.25;7.25;;;;;;;;4948013;28;45805;-76
2023/12/04 02:43:33;;;;;;;;;7.50;7.00;;;;;;;;4960469;28;45449;-76
2023/12/04 02:45:59;;;;;;;;;6.50;6.50;;;;;;;;4964542;28;45322;-76
2023/12/04 02:48:24;;;;;;;;;7.25;7.25;;;;;;;;4959230;28;45576;-76
2023/12/04 02:50:49;;;;;;;;;7.00;7.00;;;;;;;;4952596;28;46030;-76
2023/12/04 02:53:14;;;;;;;;;7.25;6.00;;;;;;;;4960197;28;45434;-76
2023/12/04 02:55:39;;;;;;;;;14.50;11.50;;;;;;;;4969932;28;45109;-76
2023/12/04 02:58:04;;;;;;;;;5.00;5.00;;;;;;;;4959318;28;45624;-76
2023/12/04 03:00:30;;;;;;;;;12.25;10.00;;;;;;;;4944616;28;44883;-76
2023/12/04 03:02:55;;;;;;;;;8.00;7.00;;;;;;;;4943485;28;46087;-78
2023/12/04 03:05:20;;;;;;;;;8.00;7.00;;;;;;;;4956430;28;45515;-77
2023/12/04 03:07:45;;;;;;;;;6.00;6.00;;;;;;;;4953741;28;45334;-76
2023/12/04 03:10:10;;;;;;;;;7.50;7.00;;;;;;;;4960736;28;46527;-76
2023/12/04 03:12:36;;;;;;;;;8.00;7.00;;;;;;;;4962244;28;46537;-77
2023/12/04 03:15:01;;;;;;;;;7.75;7.00;;;;;;;;4960897;28;45334;-76
2023/12/04 03:17:26;;;;;;;;;9.00;9.00;;;;;;;;4962597;28;45453;-76
2023/12/04 03:19:51;;;;;;;;;7.25;7.25;;;;;;;;4959097;28;45258;-76
2023/12/04 03:22:17;;;;;;;;;10.75;10.00;;;;;;;;4962295;28;45508;-76
2023/12/04 03:24:42;;;;;;;;;11.00;9.75;;;;;;;;4959946;28;45369;-76
2023/12/04 03:27:07;;;;;;;;;9.75;7.25;;;;;;;;4962391;28;45294;-76
2023/12/04 03:29:33;;;;;;;;;9.25;8.00;;;;;;;;4956365;28;45460;-76
2023/12/04 03:31:58;;;;;;;;;11.25;10.25;;;;;;;;4961434;28;46568;-76
2023/12/04 03:34:23;;;;;;;;;10.50;9.75;;;;;;;;4944025;28;45875;-76
2023/12/04 03:36:48;;;;;;;;;7.50;6.00;;;;;;;;4962417;28;45307;-76
2023/12/04 03:39:13;;;;;;;;;6.50;6.50;;;;;;;;4956842;28;45518;-76
2023/12/04 03:41:38;;;;;;;;;8.75;8.00;;;;;;;;4961477;28;45360;-76
2023/12/04 03:44:04;;;;;;;;;16.00;8.75;;;;;;;;4956109;28;45286;-76
2023/12/04 03:46:29;;;;;;;;;12.50;8.00;;;;;;;;4962275;28;45357;-76
2023/12/04 03:48:55;;;;;;;;;6.00;5.25;;;;;;;;4958548;28;45461;-77
2023/12/04 03:51:20;;;;;;;;;9.50;6.75;;;;;;;;4961974;28;45370;-77
2023/12/04 03:53:45;;;;;;;;;9.25;4.75;;;;;;;;4957445;28;45370;-77
2023/12/04 03:56:11;;;;;;;;;11.50;8.00;;;;;;;;4961781;28;45362;-76
2023/12/04 03:58:38;;;;;;;;;11.00;6.25;;;;;;;;4958097;28;45230;-77
2023/12/04 04:01:03;;;;;;;;;11.75;7.50;;;;;;;;4961618;28;45276;-77
2023/12/04 04:03:28;;;;;;;;;8.00;7.00;;;;;;;;4959628;28;45226;-77
2023/12/04 04:05:54;;;;;;;;;8.50;8.00;;;;;;;;4964522;28;45216;-76
2023/12/04 04:08:19;;;;;;;;;5.50;5.25;;;;;;;;4964047;28;45203;-76
2023/12/04 04:10:45;;;;;;;;;10.50;10.00;;;;;;;;4942993;28;47646;-76
2023/12/04 04:13:10;;;;;;;;;9.50;6.25;;;;;;;;4959971;28;45358;-75
2023/12/04 04:15:35;;;;;;;;;8.00;7.00;;;;;;;;4961543;28;45311;-75
2023/12/04 04:18:00;;;;;;;;;10.25;8.50;;;;;;;;4942746;28;45846;-75
2023/12/04 04:20:26;;;;;;;;;12.50;8.50;;;;;;;;4960809;28;45374;-74
2023/12/04 04:22:51;;;;;;;;;9.50;8.00;;;;;;;;4960088;28;45458;-74
2023/12/04 04:25:17;;;;;;;;;7.00;6.00;;;;;;;;4956403;28;45505;-74
2023/12/04 04:27:42;;;;;;;;;5.25;5.25;;;;;;;;4942824;28;45653;-74
2023/12/04 04:30:08;;;;;;;;;5.75;4.50;;;;;;;;4958345;28;45577;-74
2023/12/04 04:32:33;;;;;;;;;8.50;6.75;;;;;;;;4961521;28;45364;-73
2023/12/04 04:34:58;;;;;;;;;9.25;7.50;;;;;;;;4958874;28;45323;-73
2023/12/04 04:37:24;;;;;;;;;12.00;8.50;;;;;;;;4961349;28;45347;-73
2023/12/04 04:39:49;;;;;;;;;7.25;6.00;;;;;;;;4957780;28;45454;-73
2023/12/04 04:42:14;;;;;;;;;7.00;7.00;;;;;;;;4943428;28;45324;-73
2023/12/04 04:44:39;;;;;;;;;6.75;6.50;;;;;;;;4959050;28;45299;-73
2023/12/04 04:47:04;;;;;;;;;10.00;8.50;;;;;;;;4961080;28;45554;-74
2023/12/04 04:49:29;;;;;;;;;8.75;7.00;;;;;;;;4955690;28;46462;-74
2023/12/04 04:51:55;;;;;;;;;9.75;7.00;;;;;;;;4943117;28;45267;-74
2023/12/04 04:54:20;;;;;;;;;7.50;5.75;;;;;;;;4956911;28;45398;-73
2023/12/04 04:56:45;;;;;;;;;11.75;7.00;;;;;;;;4958381;28;45480;-73
2023/12/04 04:59:10;;;;;;;;;9.25;7.00;;;;;;;;4936988;28;46406;-73
2023/12/04 05:01:36;;;;;;;;;12.50;9.50;;;;;;;;4959487;28;44798;-73
2023/12/04 05:04:01;;;;;;;;;7.75;7.00;;;;;;;;4958780;28;45278;-73
2023/12/04 05:06:27;;;;;;;;;7.50;7.00;;;;;;;;4949929;28;46012;-73
2023/12/04 05:08:52;;;;;;;;;13.50;7.00;;;;;;;;4956237;28;45284;-73
2023/12/04 05:11:17;;;;;;;;;12.25;10.25;;;;;;;;4954314;28;45180;-73
2023/12/04 05:13:42;;;;;;;;;5.75;4.50;;;;;;;;4938364;28;45232;-73
2023/12/04 05:16:08;;;;;;;;;9.25;7.00;;;;;;;;4961198;28;45369;-73
2023/12/04 05:18:33;;;;;;;;;10.25;6.25;;;;;;;;4958989;28;45659;-73
2023/12/04 05:20:58;;;;;;;;;7.00;7.00;;;;;;;;4943424;28;45281;-73
2023/12/04 05:23:23;;;;;;;;;5.25;5.25;;;;;;;;4957542;28;45226;-73
2023/12/04 05:25:49;;;;;;;;;6.50;5.00;;;;;;;;4958156;28;45377;-73
2023/12/04 05:28:14;;;;;;;;;10.50;6.00;;;;;;;;4957126;28;46454;-73
2023/12/04 05:30:39;;;;;;;;;10.50;8.00;;;;;;;;4956875;28;45206;-73
2023/12/04 05:33:04;;;;;;;;;10.00;8.25;;;;;;;;4958562;28;45525;-73
2023/12/04 05:35:32;;;;;;;;;8.50;7.50;;;;;;;;4956369;28;45257;-73
2023/12/04 05:37:57;;;;;;;;;2.25;2.25;;;;;;;;4958314;28;45511;-73
2023/12/04 05:40:23;;;;;;;;;8.75;8.25;;;;;;;;4956126;28;45298;-73
2023/12/04 05:42:48;;;;;;;;;6.75;6.50;;;;;;;;4942009;28;45315;-73
2023/12/04 05:45:13;;;;;;;;;5.50;5.50;;;;;;;;4955519;28;45372;-73
2023/12/04 05:47:38;;;;;;;;;5.25;5.25;;;;;;;;4959738;28;45598;-73
2023/12/04 05:50:04;;;;;;;;;7.50;7.00;;;;;;;;4935081;28;45385;-72
2023/12/04 05:52:29;;;;;;;;;7.00;6.50;;;;;;;;4961610;28;45755;-73
2023/12/04 05:54:54;;;;;;;;;10.50;7.00;;;;;;;;4957326;28;45552;-73
2023/12/04 05:57:20;;;;;;;;;9.50;7.25;;;;;;;;4960048;28;45645;-73
2023/12/04 05:59:45;;;;;;;;;7.00;6.50;;;;;;;;4957223;28;45261;-73
2023/12/04 06:02:10;;;;;;;;;12.00;8.25;;;;;;;;4960042;28;45271;-72
2023/12/04 06:04:36;;;;;;;;;11.50;8.25;;;;;;;;4940681;28;45241;-72
2023/12/04 06:07:01;;;;;;;;;9.25;6.50;;;;;;;;4966373;28;46716;-72
2023/12/04 06:09:26;;;;;;;;;10.50;6.75;;;;;;;;4938976;28;45195;-72
2023/12/04 06:11:51;;;;;;;;;3.00;3.00;;;;;;;;4940777;28;45309;-72
2023/12/04 06:14:16;;;;;;;;;10.50;6.25;;;;;;;;4953743;28;45273;-73
2023/12/04 06:16:41;;;;;;;;;7.50;6.50;;;;;;;;4938527;28;48108;-73
2023/12/04 06:19:07;;;;;;;;;8.50;7.00;;;;;;;;4958675;28;45294;-73
2023/12/04 06:21:32;;;;;;;;;6.00;5.50;;;;;;;;4942526;28;45252;-73
2023/12/04 06:23:58;;;;;;;;;7.00;7.00;;;;;;;;4955950;28;45397;-73
2023/12/04 06:26:23;;;;;;;;;11.00;11.00;;;;;;;;4956477;28;46448;-73
2023/12/04 06:28:48;;;;;;;;;5.75;5.75;;;;;;;;4943774;28;44878;-72
2023/12/04 06:31:14;;;;;;;;;8.25;6.25;;;;;;;;4941504;28;44771;-73
2023/12/04 06:33:39;;;;;;;;;10.00;7.50;;;;;;;;4943115;28;45816;-73
2023/12/04 06:36:05;;;;;;;;;7.00;7.00;;;;;;;;4958923;28;45559;-73
2023/12/04 06:38:32;;;;;;;;;10.50;8.50;;;;;;;;4958123;28;45501;-73
2023/12/04 06:40:57;;;;;;;;;10.25;6.00;;;;;;;;4950033;28;45373;-73
2023/12/04 06:43:22;;;;;;;;;6.25;5.00;;;;;;;;4960128;28;45576;-73
2023/12/04 06:45:48;;;;;;;;;4.00;3.00;;;;;;;;4953610;28;45536;-73
2023/12/04 06:48:13;;;;;;;;;10.00;7.00;;;;;;;;4953556;28;45519;-73
2023/12/04 06:50:39;;;;;;;;;9.00;6.75;;;;;;;;4954518;28;45203;-73
2023/12/04 06:53:05;;;;;;;;;6.00;6.00;;;;;;;;4957856;28;45456;-72
2023/12/04 06:55:30;;;;;;;;;5.25;5.25;;;;;;;;4956430;28;45471;-73
2023/12/04 06:57:55;;;;;;;;;5.50;5.50;;;;;;;;4940442;28;45338;-73
2023/12/04 07:00:20;;;;;;;;;9.50;5.75;;;;;;;;4957706;28;45368;-74
2023/12/04 07:02:46;;;;;;;;;9.25;5.75;;;;;;;;4958597;28;45149;-74
2023/12/04 07:05:11;;;;;;;;;5.75;5.00;;;;;;;;4959403;28;45384;-73
2023/12/04 07:07:36;;;;;;;;;6.00;5.00;;;;;;;;4963590;28;45223;-74
2023/12/04 07:10:01;;;;;;;;;6.00;6.00;;;;;;;;4957261;28;45663;-73
2023/12/04 07:12:26;;;;;;;;;7.00;7.00;;;;;;;;4962532;28;45540;-76
2023/12/04 07:14:51;;;;;;;;;11.50;6.00;;;;;;;;4957987;28;45868;-76
2023/12/04 07:17:17;;;;;;;;;13.25;7.25;;;;;;;;4961074;28;45366;-75
2023/12/04 07:19:42;;;;;;;;;7.50;6.75;;;;;;;;4958606;28;45452;-75
2023/12/04 07:22:07;;;;;;;;;8.00;6.25;;;;;;;;4962671;28;45621;-75
2023/12/04 07:24:32;;;;;;;;;7.00;6.00;;;;;;;;4938805;28;47375;-76
2023/12/04 07:26:58;;;;;;;;;9.75;9.00;;;;;;;;4960173;28;45314;-76
2023/12/04 07:29:23;;;;;;;;;5.75;5.00;;;;;;;;4959703;28;45269;-75
2023/12/04 07:31:48;;;;;;;;;7.75;7.50;;;;;;;;4962525;28;45212;-75
2023/12/04 07:34:13;;;;;;;;;9.50;7.75;;;;;;;;4943612;28;46364;-75
2023/12/04 07:36:38;;;;;;;;;12.00;8.00;;;;;;;;4961778;28;45272;-75
2023/12/04 07:39:06;;;;;;;;;5.00;5.00;;;;;;;;4955394;28;46040;-75
2023/12/04 07:41:31;;;;;;;;;5.75;5.75;;;;;;;;4961322;28;44795;-75
2023/12/04 07:43:56;;;;;;;;;6.25;6.25;;;;;;;;4957532;28;45456;-75
2023/12/04 07:46:22;;;;;;;;;7.25;7.25;;;;;;;;4962154;28;45260;-77
2023/12/04 07:48:47;;;;;;;;;2.50;2.50;;;;;;;;4943568;28;45450;-76
2023/12/04 07:51:12;;;;;;;;;6.75;6.75;;;;;;;;4962028;28;45633;-76
2023/12/04 07:53:37;;;;;;;;;17.75;11.50;;;;;;;;4958923;28;45392;-76
2023/12/04 07:56:03;;;;;;;;;21.00;16.75;;;;;;;;4943994;28;45389;-75
2023/12/04 07:58:28;;;;;;;;;11.75;11.50;;;;;;;;4958761;28;45480;-75
2023/12/04 08:00:53;;;;;;;;;9.00;9.00;;;;;;;;4962100;28;44799;-75
2023/12/04 08:03:18;;;;;;;;;30.75;25.50;;;;;;;;4960186;28;45353;-75
2023/12/04 08:05:44;;;;;;;;;12.25;10.25;;;;;;;;4945518;28;45312;-75
2023/12/04 08:08:09;;;;;;;;;12.75;10.50;;;;;;;;4965493;28;45333;-76
2023/12/04 08:10:34;;;;;;;;;10.00;9.50;;;;;;;;4961699;28;45523;-76
2023/12/04 08:13:00;;;;;;;;;11.00;8.00;;;;;;;;4958792;28;45407;-74
2023/12/04 08:15:25;;;;;;;;;13.00;8.00;;;;;;;;4960552;28;45320;-74
2023/12/04 08:17:50;;;;;;;;;12.00;8.00;;;;;;;;4959738;28;45597;-74
2023/12/04 08:20:15;;;;;;;;;10.25;9.75;;;;;;;;4956730;28;45232;-74
2023/12/04 08:22:41;;;;;;;;;7.00;7.00;;;;;;;;4961495;28;45442;-76
2023/12/04 08:25:06;;;;;;;;;10.25;7.00;;;;;;;;4957053;28;45162;-75
2023/12/04 08:27:32;;;;;;;;;8.00;7.00;;;;;;;;4961961;28;45219;-74
2023/12/04 08:29:57;;;;;;;;;11.00;11.00;;;;;;;;4962347;28;45112;-73
2023/12/04 08:32:22;;;;;;;;;7.75;6.00;;;;;;;;4961978;28;46748;-73
2023/12/04 08:34:47;;;;;;;;;7.00;7.00;;;;;;;;4958635;28;45373;-73
2023/12/04 08:37:13;;;;;;;;;6.00;6.00;;;;;;;;4944235;28;45311;-72
2023/12/04 08:39:38;;;;;;;;;11.50;9.25;;;;;;;;4959281;28;45575;-72
2023/12/04 08:42:03;;;;;;;;;9.00;6.75;;;;;;;;4960415;28;46623;-72
2023/12/04 08:44:28;;;;;;;;;10.25;7.75;;;;;;;;4957797;28;45305;-73
2023/12/04 08:46:54;;;;;;;;;1.75;1.50;;;;;;;;4960058;28;45283;-73
2023/12/04 08:49:19;;;;;;;;;7.00;7.00;;;;;;;;4957498;28;45436;-73
2023/12/04 08:51:44;;;;;;;;;8.50;6.00;;;;;;;;4961292;28;45491;-73
2023/12/04 08:54:09;;;;;;;;;6.75;6.75;;;;;;;;4959389;28;45346;-73
2023/12/04 08:56:34;;;;;;;;;7.50;7.50;;;;;;;;4943145;28;45247;-73
2023/12/04 08:58:59;;;;;;;;;5.00;5.00;;;;;;;;4957260;28;45486;-73
2023/12/04 09:01:25;;;;;;;;;5.75;5.75;;;;;;;;4955606;28;46640;-74
2023/12/04 09:03:51;;;;;;;;;3.75;3.75;;;;;;;;4959738;28;45258;-75
2023/12/04 09:06:17;;;;;;;;;6.00;6.00;;;;;;;;4966704;28;45375;-78
2023/12/04 09:08:42;;;;;;;;;6.25;6.00;;;;;;;;4939770;28;45980;-75
2023/12/04 09:11:07;;;;;;;;;7.00;5.50;;;;;;;;4954499;28;46242;-74
2023/12/04 09:13:33;;;;;;;;;8.75;5.00;;;;;;;;4959579;28;45247;-73
2023/12/04 09:15:59;;;;;;;;;5.25;4.50;;;;;;;;4955224;28;45566;-74
2023/12/04 09:18:24;;;;;;;;;7.50;4.50;;;;;;;;4957872;28;45451;-74
2023/12/04 09:20:49;;;;;;;;;5.50;4.50;;;;;;;;4943352;28;47325;-75
2023/12/04 09:23:14;;;;;;;;;6.50;4.50;;;;;;;;4958690;28;45316;-75
2023/12/04 09:25:39;;;;;;;;;11.75;8.25;;;;;;;;4958674;28;45353;-75
2023/12/04 09:28:04;;;;;;;;;5.50;5.50;;;;;;;;4958284;28;45489;-75
2023/12/04 09:30:30;;;;;;;;;7.50;7.50;;;;;;;;4943354;28;47926;-76
2023/12/04 09:32:55;;;;;;;;;6.25;6.25;;;;;;;;4941905;28;45224;-75
2023/12/04 09:35:20;;;;;;;;;5.00;3.00;;;;;;;;4957498;28;45291;-75
2023/12/04 09:37:45;;;;;;;;;6.50;4.25;;;;;;;;4959875;28;45311;-76
2023/12/04 09:40:11;;;;;;;;;6.00;4.25;;;;;;;;4958927;28;45705;-75
2023/12/04 09:42:36;;;;;;;;;4.50;4.50;;;;;;;;4960493;28;45306;-76
2023/12/04 09:45:02;;;;;;;;;7.25;5.25;;;;;;;;4955845;28;45212;-75
2023/12/04 09:47:27;;;;;;;;;7.00;4.25;;;;;;;;4942702;28;45499;-71
2023/12/04 09:49:53;;;;;;;;;5.00;4.00;;;;;;;;4957220;28;45633;-75
2023/12/04 09:52:19;;;;;;;;;3.75;3.25;;;;;;;;4960479;28;45813;-74
2023/12/04 09:54:45;;;;;;;;;6.00;4.00;;;;;;;;4957891;28;45461;-75
2023/12/04 09:57:11;;;;;;;;;9.00;6.50;;;;;;;;4960594;28;45163;-75
2023/12/04 09:59:36;;;;;;;;;7.00;4.00;;;;;;;;4956819;28;45533;-75
2023/12/04 10:02:01;;;;;;;;;7.00;4.00;;;;;;;;4953585;28;45397;-75
2023/12/04 10:04:26;;;;;;;;;10.50;7.00;;;;;;;;4953684;28;45338;-76
2023/12/04 10:06:55;;;;;;;;;7.00;7.00;;;;;;;;4963450;28;45408;-75
2023/12/04 10:09:22;;;;;;;;;6.00;6.00;;;;;;;;4965710;28;46786;-73
2023/12/04 10:11:47;;;;;;;;;6.00;6.00;;;;;;;;4960396;28;45322;-73
2023/12/04 10:14:17;;;;;;;;;7.00;4.00;;;;;;;;4954856;28;45365;-74
2023/12/04 10:16:42;;;;;;;;;4.50;4.50;;;;;;;;4960775;28;45235;-74
2023/12/04 10:19:18;;;;;;;;;7.75;5.50;;;;;;;;4955244;28;46383;-74
2023/12/04 10:21:47;;;;;;;;;3.75;3.00;;;;;;;;4963531;28;45628;-73
2023/12/04 10:24:26;;;;;;;;;9.00;6.00;;;;;;;;4940595;28;45380;-73
2023/12/04 10:26:51;;;;;;;;;5.00;3.50;;;;;;;;4949238;28;46707;-73
2023/12/04 10:29:16;;;;;;;;;6.75;6.00;;;;;;;;4959175;28;45519;-74
2023/12/04 10:31:41;;;;;;;;;5.50;5.50;;;;;;;;4950604;28;45304;-74
2023/12/04 10:34:09;;;;;;;;;4.50;4.50;;;;;;;;4959122;28;45255;-74
2023/12/04 10:36:34;;;;;;;;;5.50;3.00;;;;;;;;4962763;28;45412;-72
2023/12/04 10:39:00;;;;;;;;;3.75;3.75;;;;;;;;4953279;28;46465;-74
2023/12/04 10:41:26;;;;;;;;;3.00;3.00;;;;;;;;4966652;28;45512;-74
2023/12/04 10:43:51;;;;;;;;;4.25;3.00;;;;;;;;4947133;28;45272;-73
2023/12/04 10:46:17;;;;;;;;;9.00;7.00;;;;;;;;4967159;28;45126;-73
2023/12/04 10:48:44;;;;;;;;;8.25;6.50;;;;;;;;4946814;28;46605;-73
2023/12/04 10:51:10;;;;;;;;;3.00;3.00;;;;;;;;4967971;28;45746;-73
2023/12/04 10:53:36;;;;;;;;;5.25;5.25;;;;;;;;4943335;28;45434;-73
2023/12/04 10:56:02;;;;;;;;;8.00;8.00;;;;;;;;4967532;28;45476;-75
2023/12/04 10:58:28;;;;;;;;;7.25;7.25;;;;;;;;4966384;28;45458;-75
2023/12/04 11:00:54;;;;;;;;;6.25;5.00;;;;;;;;4966346;28;45310;-74
2023/12/04 11:03:31;;;;;;;;;4.50;4.50;;;;;;;;4969061;28;45336;-75
2023/12/04 11:06:01;;;;;;;;;6.25;3.00;;;;;;;;4971244;28;45174;-76
2023/12/04 11:08:28;;;;;;;;;7.50;5.00;;;;;;;;4945675;28;47661;-75
2023/12/04 11:10:58;;;;;;;;;0.75;0.75;;;;;;;;4962466;28;45302;-75
2023/12/04 11:13:27;;;;;;;;;8.50;7.50;;;;;;;;4946034;28;45193;-76
2023/12/04 11:15:55;;;;;;;;;7.25;5.00;;;;;;;;4961858;28;45321;-75
2023/12/04 11:18:22;;;;;;;;;5.00;5.00;;;;;;;;4969636;28;45907;-75
2023/12/04 11:20:50;;;;;;;;;11.50;9.50;;;;;;;;4962777;28;45297;-75
2023/12/04 11:23:16;;;;;;;;;8.75;6.75;;;;;;;;4969339;28;45697;-76
2023/12/04 11:25:41;;;;;;;;;5.00;4.50;;;;;;;;4944603;28;45491;-75
2023/12/04 11:28:07;;;;;;;;;6.50;4.50;;;;;;;;4966147;28;46225;-75
2023/12/04 11:30:32;;;;;;;;;11.00;8.75;;;;;;;;4961005;28;45376;-76
2023/12/04 11:33:00;;;;;;;;;9.00;7.00;;;;;;;;4960675;28;45432;-76
2023/12/04 11:35:25;;;;;;;;;8.50;6.00;;;;;;;;4959258;28;45573;-75
2023/12/04 11:37:52;;;;;;;;;9.50;6.25;;;;;;;;4961018;28;45553;-76
2023/12/04 11:40:17;;;;;;;;;9.00;6.00;;;;;;;;4960139;28;45360;-75
2023/12/04 11:42:42;;;;;;;;;3.00;2.25;;;;;;;;4962144;28;45171;-73
2023/12/04 11:45:09;;;;;;;;;6.25;6.25;;;;;;;;4939581;28;48562;-75
2023/12/04 11:47:53;;;;;;;;;5.75;5.75;;;;;;;;4962173;28;45231;-74
2023/12/04 11:50:19;;;;;;;;;6.50;6.50;;;;;;;;4957906;28;45381;-74
2023/12/04 11:52:44;;;;;;;;;7.00;7.00;;;;;;;;4959586;28;45404;-74
2023/12/04 11:55:09;;;;;;;;;11.25;9.50;;;;;;;;4956082;28;45078;-73
2023/12/04 11:57:35;;;;;;;;;12.25;11.00;;;;;;;;4962138;28;45574;-75
2023/12/04 12:00:14;;;;;;;;;8.00;8.00;;;;;;;;4958769;28;45396;-75
2023/12/04 12:02:40;;;;;;;;;5.50;4.25;;;;;;;;4955126;28;45246;-76
2023/12/04 12:05:06;;;;;;;;;4.25;4.00;;;;;;;;4952374;28;45218;-75
2023/12/04 12:07:32;;;;;;;;;8.75;3.00;;;;;;;;4968134;28;45283;-76
2023/12/04 12:09:57;;;;;;;;;5.75;5.75;;;;;;;;4959501;28;45321;-77
2023/12/04 12:12:22;;;;;;;;;7.50;6.25;;;;;;;;4962719;28;45269;-77
2023/12/04 12:14:47;;;;;;;;;12.00;9.75;;;;;;;;4956049;28;45567;-76
2023/12/04 12:17:13;;;;;;;;;5.50;5.00;;;;;;;;4959711;28;45243;-76
2023/12/04 12:19:39;;;;;;;;;5.75;4.00;;;;;;;;4954770;28;45321;-77
2023/12/04 12:22:04;;;;;;;;;4.00;3.50;;;;;;;;4961421;28;45216;-76
2023/12/04 12:24:29;;;;;;;;;4.75;4.00;;;;;;;;4955360;28;45528;-77
2023/12/04 12:26:55;;;;;;;;;5.50;4.25;;;;;;;;4964193;28;46754;-75
2023/12/04 12:29:20;;;;;;;;;4.25;4.25;;;;;;;;4959857;28;45287;-76
2023/12/04 12:31:46;;;;;;;;;5.00;5.00;;;;;;;;4962587;28;45461;-76
2023/12/04 12:34:11;;;;;;;;;3.00;3.00;;;;;;;;4966307;28;45501;-76
2023/12/04 12:36:36;;;;;;;;;3.00;3.00;;;;;;;;4965310;28;45408;-75
2023/12/04 12:39:03;;;;;;;;;2.25;2.00;;;;;;;;4963756;28;45574;-76
2023/12/04 12:41:29;;;;;;;;;3.25;3.25;;;;;;;;4961347;28;45354;-77
2023/12/04 12:43:56;;;;;;;;;4.75;4.75;;;;;;;;4942802;28;45651;-76
2023/12/04 12:46:21;;;;;;;;;4.50;4.50;;;;;;;;4962761;28;45738;-76
2023/12/04 12:48:47;;;;;;;;;4.50;4.25;;;;;;;;4958140;28;45259;-76
2023/12/04 12:51:12;;;;;;;;;4.75;4.00;;;;;;;;4962924;28;45162;-76
2023/12/04 12:53:38;;;;;;;;;7.75;5.75;;;;;;;;4959509;28;45145;-76
2023/12/04 12:56:03;;;;;;;;;5.00;5.00;;;;;;;;4961288;28;45445;-77
2023/12/04 12:58:29;;;;;;;;;2.00;1.50;;;;;;;;4959563;28;45259;-76
2023/12/04 13:00:54;;;;;;;;;4.00;3.75;;;;;;;;4961160;28;45361;-76
2023/12/04 13:03:20;;;;;;;;;6.00;4.75;;;;;;;;4958429;28;45222;-76
2023/12/04 13:05:45;;;;;;;;;4.00;4.00;;;;;;;;4955747;28;45327;-77
2023/12/04 13:08:17;;;;;;;;;3.75;3.00;;;;;;;;4962718;28;45291;-76
2023/12/04 13:10:42;;;;;;;;;3.75;3.75;;;;;;;;4958773;28;45184;-76
2023/12/04 13:13:11;;;;;;;;;4.75;4.75;;;;;;;;4953749;28;47350;-76
2023/12/04 13:15:36;;;;;;;;;3.00;3.00;;;;;;;;4959586;28;45620;-76
2023/12/04 13:18:02;;;;;;;;;6.75;6.25;;;;;;;;4957954;28;45449;-76
2023/12/04 13:20:27;;;;;;;;;4.50;4.50;;;;;;;;4943064;28;45256;-76
2023/12/04 13:22:52;;;;;;;;;4.00;3.00;;;;;;;;4960013;28;45503;-76
2023/12/04 13:25:18;;;;;;;;;3.00;3.00;;;;;;;;4959854;28;45598;-76
2023/12/04 13:27:43;;;;;;;;;8.00;6.00;;;;;;;;4961027;28;45314;-77
2023/12/04 13:30:08;;;;;;;;;4.50;4.50;;;;;;;;4939912;28;45471;-77
2023/12/04 13:32:34;;;;;;;;;3.50;3.50;;;;;;;;4962076;28;45254;-76
2023/12/04 13:34:59;;;;;;;;;4.00;4.00;;;;;;;;4937267;28;46718;-76
2023/12/04 13:37:26;;;;;;;;;5.75;4.50;;;;;;;;4971099;28;45507;-76
2023/12/04 13:39:57;;;;;;;;;5.00;5.00;;;;;;;;4962544;28;45405;-76
2023/12/04 13:45:09;;;;;;;;;5.50;4.00;;;;;;;;4958516;28;45320;-75
2023/12/04 13:47:34;;;;;;;;;4.00;4.00;;;;;;;;4967999;28;45378;-77
2023/12/04 13:49:59;;;;;;;;;5.00;5.00;;;;;;;;4942715;28;45361;-75
2023/12/04 13:52:24;;;;;;;;;5.25;4.00;;;;;;;;4963422;28;45323;-76
2023/12/04 13:54:52;;;;;;;;;8.75;6.25;;;;;;;;4961620;28;45617;-76
2023/12/04 13:57:33;;;;;;;;;4.50;4.00;;;;;;;;4960727;28;45280;-76
2023/12/04 13:59:59;;;;;;;;;4.50;3.00;;;;;;;;4944378;28;45411;-76
2023/12/04 14:02:24;;;;;;;;;5.75;4.00;;;;;;;;4947030;28;46092;-76
2023/12/04 14:04:49;;;;;;;;;4.00;4.00;;;;;;;;4961350;28;47064;-76
2023/12/04 14:07:15;;;;;;;;;3.00;3.00;;;;;;;;4965298;28;44779;-76
2023/12/04 14:09:40;;;;;;;;;2.00;2.00;;;;;;;;4960949;28;45440;-75
2023/12/04 14:12:06;;;;;;;;;3.50;3.00;;;;;;;;4965024;28;45338;-76
2023/12/04 14:14:33;;;;;;;;;4.75;3.50;;;;;;;;4959795;28;45894;-76
2023/12/04 14:16:58;;;;;;;;;5.25;4.00;;;;;;;;4959966;28;45360;-76
2023/12/04 14:19:23;;;;;;;;;5.50;4.00;;;;;;;;4958068;28;45574;-76
2023/12/04 14:21:48;;;;;;;;;5.00;4.00;;;;;;;;4965749;28;45424;-76
2023/12/04 14:24:14;;;;;;;;;6.50;6.00;;;;;;;;4955319;28;45154;-76
2023/12/04 14:26:39;;;;;;;;;1.00;1.00;;;;;;;;4970674;28;45210;-76
2023/12/04 14:29:06;;;;;;;;;11.25;7.00;;;;;;;;4954989;28;45195;-75
2023/12/04 14:31:31;;;;;;;;;5.50;4.25;;;;;;;;4963099;28;45554;-76